sensor_id;sensor_type;location;lat;lon;timestamp;pressure;altitude;pressure_sealevel;temperature;humidity
66385;BME280;53426;55.872;37.462;2023-06-05T00:00:18;99585.41;;;10.55;55.46
66385;BME280;53426;55.872;37.462;2023-06-05T00:02:43;99585.03;;;10.59;56.01
66385;BME280;53426;55.872;37.462;2023-06-05T00:05:09;99570.19;;;10.47;55.23
66385;BME280;53426;55.872;37.462;2023-06-05T00:07:36;99585.16;;;10.58;56.63
66385;BME280;53426;55.872;37.462;2023-06-05T00:10:06;99584.44;;;10.56;55.58
66385;BME280;53426;55.872;37.462;2023-06-05T00:12:33;99585.16;;;10.58;55.34
66385;BME280;53426;55.872;37.462;2023-06-05T00:14:59;99581.91;;;10.54;55.78
66385;BME280;53426;55.872;37.462;2023-06-05T00:17:29;99565.84;;;10.46;55.58
66385;BME280;53426;55.872;37.462;2023-06-05T00:19:56;99566.69;;;10.46;55.11
66385;BME280;53426;55.872;37.462;2023-06-05T00:22:27;99587.22;;;10.54;55.37
66385;BME280;53426;55.872;37.462;2023-06-05T00:24:53;99566.69;;;10.46;55.46
66385;BME280;53426;55.872;37.462;2023-06-05T00:27:19;99571.00;;;10.47;55.57
66385;BME280;53426;55.872;37.462;2023-06-05T00:29:48;99565.56;;;10.49;55.46
66385;BME280;53426;55.872;37.462;2023-06-05T00:32:16;99571.31;;;10.54;55.80
66385;BME280;53426;55.872;37.462;2023-06-05T00:34:42;99578.19;;;10.57;55.57
66385;BME280;53426;55.872;37.462;2023-06-05T00:37:10;99571.59;;;10.51;55.59
66385;BME280;53426;55.872;37.462;2023-06-05T00:39:38;99571.97;;;10.46;55.76
66385;BME280;53426;55.872;37.462;2023-06-05T00:42:07;99587.22;;;10.54;55.65
66385;BME280;53426;55.872;37.462;2023-06-05T00:44:39;99581.91;;;10.54;55.95
66385;BME280;53426;55.872;37.462;2023-06-05T00:47:07;99580.84;;;10.57;55.24
66385;BME280;53426;55.872;37.462;2023-06-05T00:49:33;99579.41;;;10.53;55.73
66385;BME280;53426;55.872;37.462;2023-06-05T00:51:59;99586.38;;;10.54;55.95
66385;BME280;53426;55.872;37.462;2023-06-05T00:54:26;99582.06;;;10.53;55.66
66385;BME280;53426;55.872;37.462;2023-06-05T00:56:51;99574.03;;;10.43;55.57
66385;BME280;53426;55.872;37.462;2023-06-05T00:59:20;99582.06;;;10.53;55.87
66385;BME280;53426;55.872;37.462;2023-06-05T01:01:48;99586.53;;;10.52;55.56
66385;BME280;53426;55.872;37.462;2023-06-05T01:04:14;99578.94;;;10.47;55.78
66385;BME280;53426;55.872;37.462;2023-06-05T01:06:40;99583.41;;;10.47;55.59
66385;BME280;53426;55.872;37.462;2023-06-05T01:09:07;99582.19;;;10.51;56.14
66385;BME280;53426;55.872;37.462;2023-06-05T01:11:59;99584.72;;;10.53;55.83
66385;BME280;53426;55.872;37.462;2023-06-05T01:14:28;99577.13;;;10.48;56.09
66385;BME280;53426;55.872;37.462;2023-06-05T01:16:59;99574.28;;;10.40;56.14
66385;BME280;53426;55.872;37.462;2023-06-05T01:19:26;99578.47;;;10.42;56.08
66385;BME280;53426;55.872;37.462;2023-06-05T01:22:00;99576.22;;;10.38;55.77
66385;BME280;53426;55.872;37.462;2023-06-05T01:24:29;99586.41;;;10.42;56.02
66385;BME280;53426;55.872;37.462;2023-06-05T01:27:19;99582.13;;;10.41;55.90
66385;BME280;53426;55.872;37.462;2023-06-05T01:30:26;99586.69;;;10.39;55.93
66385;BME280;53426;55.872;37.462;2023-06-05T01:33:26;99581.78;;;10.35;56.22
66385;BME280;53426;55.872;37.462;2023-06-05T01:35:54;99562.19;;;10.26;56.18
66385;BME280;53426;55.872;37.462;2023-06-05T01:38:22;99575.72;;;10.44;56.15
66385;BME280;53426;55.872;37.462;2023-06-05T01:40:50;99568.44;;;10.36;55.56
66385;BME280;53426;55.872;37.462;2023-06-05T01:43:18;99586.75;;;10.49;56.01
66385;BME280;53426;55.872;37.462;2023-06-05T01:45:44;99573.19;;;10.42;55.83
66385;BME280;53426;55.872;37.462;2023-06-05T01:48:10;99578.94;;;10.47;55.94
66385;BME280;53426;55.872;37.462;2023-06-05T01:50:37;99592.38;;;10.56;55.99
66385;BME280;53426;55.872;37.462;2023-06-05T01:53:04;99595.16;;;10.54;56.32
66385;BME280;53426;55.872;37.462;2023-06-05T01:55:33;99593.34;;;10.55;56.37
66385;BME280;53426;55.872;37.462;2023-06-05T01:58:02;99599.38;;;10.57;56.06
66385;BME280;53426;55.872;37.462;2023-06-05T02:00:28;99564.28;;;10.43;55.91
66385;BME280;53426;55.872;37.462;2023-06-05T02:02:54;99594.75;;;10.59;56.09
66385;BME280;53426;55.872;37.462;2023-06-05T02:05:20;99593.69;;;10.61;55.66
66385;BME280;53426;55.872;37.462;2023-06-05T02:07:47;99597.88;;;10.64;55.80
66385;BME280;53426;55.872;37.462;2023-06-05T02:10:20;99598.97;;;10.61;56.63
66385;BME280;53426;55.872;37.462;2023-06-05T02:12:49;99574.38;;;10.49;55.93
66385;BME280;53426;55.872;37.462;2023-06-05T02:15:15;99604.66;;;10.57;56.27
66385;BME280;53426;55.872;37.462;2023-06-05T02:17:42;99599.56;;;10.65;56.49
66385;BME280;53426;55.872;37.462;2023-06-05T02:20:17;99603.00;;;10.76;56.25
66385;BME280;53426;55.872;37.462;2023-06-05T02:22:43;99583.09;;;10.61;56.46
66385;BME280;53426;55.872;37.462;2023-06-05T02:28:05;99615.50;;;10.85;55.92
66385;BME280;53426;55.872;37.462;2023-06-05T02:30:31;99612.00;;;10.85;56.23
66385;BME280;53426;55.872;37.462;2023-06-05T02:32:58;99593.56;;;10.83;56.34
66385;BME280;53426;55.872;37.462;2023-06-05T02:35:27;99596.28;;;10.93;56.45
66385;BME280;53426;55.872;37.462;2023-06-05T02:37:54;99582.41;;;10.80;56.78
66385;BME280;53426;55.872;37.462;2023-06-05T02:40:22;99610.44;;;11.03;56.30
66385;BME280;53426;55.872;37.462;2023-06-05T02:42:49;99617.47;;;11.14;56.67
66385;BME280;53426;55.872;37.462;2023-06-05T02:45:17;99597.19;;;11.03;56.15
66385;BME280;53426;55.872;37.462;2023-06-05T02:47:43;99616.06;;;11.10;55.86
66385;BME280;53426;55.872;37.462;2023-06-05T02:50:09;99613.00;;;11.14;56.35
66385;BME280;53426;55.872;37.462;2023-06-05T02:52:40;99601.00;;;11.10;56.22
66385;BME280;53426;55.872;37.462;2023-06-05T02:55:17;99609.75;;;11.31;55.72
66385;BME280;53426;55.872;37.462;2023-06-05T02:57:46;99609.03;;;11.29;55.84
66385;BME280;53426;55.872;37.462;2023-06-05T03:00:18;99615.41;;;11.48;55.66
66385;BME280;53426;55.872;37.462;2023-06-05T03:02:50;99619.09;;;11.56;55.36
66385;BME280;53426;55.872;37.462;2023-06-05T03:05:19;99604.28;;;11.54;55.32
66385;BME280;53426;55.872;37.462;2023-06-05T03:07:51;99622.31;;;11.60;55.82
66385;BME280;53426;55.872;37.462;2023-06-05T03:10:20;99609.06;;;11.60;55.49
66385;BME280;53426;55.872;37.462;2023-06-05T03:12:47;99609.94;;;11.70;55.29
66385;BME280;53426;55.872;37.462;2023-06-05T03:15:14;99614.38;;;11.69;55.25
66385;BME280;53426;55.872;37.462;2023-06-05T03:17:42;99609.38;;;11.66;55.08
66385;BME280;53426;55.872;37.462;2023-06-05T03:20:08;99609.50;;;11.65;55.34
66385;BME280;53426;55.872;37.462;2023-06-05T03:22:35;99613.66;;;11.58;55.51
66385;BME280;53426;55.872;37.462;2023-06-05T03:25:02;99608.50;;;11.56;55.65
66385;BME280;53426;55.872;37.462;2023-06-05T03:27:31;99613.66;;;11.58;55.95
66385;BME280;53426;55.872;37.462;2023-06-05T03:29:57;99615.00;;;11.52;56.50
66385;BME280;53426;55.872;37.462;2023-06-05T03:32:25;99621.44;;;11.50;56.86
66385;BME280;53426;55.872;37.462;2023-06-05T03:34:51;99621.00;;;11.45;57.54
66385;BME280;53426;55.872;37.462;2023-06-05T03:37:18;99623.66;;;11.45;58.15
66385;BME280;53426;55.872;37.462;2023-06-05T03:39:46;99616.47;;;11.36;59.00
66385;BME280;53426;55.872;37.462;2023-06-05T03:42:12;99617.25;;;11.26;58.56
66385;BME280;53426;55.872;37.462;2023-06-05T03:44:38;99606.56;;;11.07;59.08
66385;BME280;53426;55.872;37.462;2023-06-05T03:47:04;99613.78;;;11.05;59.91
66385;BME280;53426;55.872;37.462;2023-06-05T03:49:33;99612.00;;;11.06;59.43
66385;BME280;53426;55.872;37.462;2023-06-05T03:54:56;99613.59;;;11.18;59.72
66385;BME280;53426;55.872;37.462;2023-06-05T03:57:23;99599.69;;;11.25;59.68
66385;BME280;53426;55.872;37.462;2023-06-05T03:59:50;99609.56;;;11.44;58.82
66385;BME280;53426;55.872;37.462;2023-06-05T04:02:17;99617.13;;;11.58;58.99
66385;BME280;53426;55.872;37.462;2023-06-05T04:04:43;99611.38;;;11.74;59.50
66385;BME280;53426;55.872;37.462;2023-06-05T04:07:09;99605.53;;;11.90;58.94
66385;BME280;53426;55.872;37.462;2023-06-05T04:09:36;99619.84;;;12.18;58.31
66385;BME280;53426;55.872;37.462;2023-06-05T04:12:03;99620.16;;;12.34;57.82
66385;BME280;53426;55.872;37.462;2023-06-05T04:14:32;99594.75;;;12.31;57.92
66385;BME280;53426;55.872;37.462;2023-06-05T04:16:58;99614.34;;;12.59;57.35
66385;BME280;53426;55.872;37.462;2023-06-05T04:19:25;99611.66;;;12.78;57.76
66385;BME280;53426;55.872;37.462;2023-06-05T04:21:54;99608.03;;;12.79;56.79
66385;BME280;53426;55.872;37.462;2023-06-05T04:24:20;99614.19;;;12.70;57.43
66385;BME280;53426;55.872;37.462;2023-06-05T04:26:46;99613.50;;;12.58;58.85
66385;BME280;53426;55.872;37.462;2023-06-05T04:29:13;99606.91;;;12.53;59.60
66385;BME280;53426;55.872;37.462;2023-06-05T04:31:50;99617.81;;;12.60;59.02
66385;BME280;53426;55.872;37.462;2023-06-05T04:34:16;99622.00;;;12.62;59.68
66385;BME280;53426;55.872;37.462;2023-06-05T04:36:46;99612.34;;;12.51;58.68
66385;BME280;53426;55.872;37.462;2023-06-05T04:39:16;99618.09;;;12.37;59.79
66385;BME280;53426;55.872;37.462;2023-06-05T04:41:45;99629.50;;;12.19;61.22
66385;BME280;53426;55.872;37.462;2023-06-05T04:44:15;99626.00;;;12.18;61.69
66385;BME280;53426;55.872;37.462;2023-06-05T04:46:45;99623.34;;;12.18;62.09
66385;BME280;53426;55.872;37.462;2023-06-05T04:49:13;99623.22;;;12.10;63.06
66385;BME280;53426;55.872;37.462;2023-06-05T04:51:40;99622.19;;;12.01;62.88
66385;BME280;53426;55.872;37.462;2023-06-05T04:54:11;99611.44;;;11.93;63.29
66385;BME280;53426;55.872;37.462;2023-06-05T04:56:38;99613.66;;;11.88;63.16
66385;BME280;53426;55.872;37.462;2023-06-05T04:59:05;99597.22;;;11.94;63.44
66385;BME280;53426;55.872;37.462;2023-06-05T05:01:32;99610.63;;;12.12;63.05
66385;BME280;53426;55.872;37.462;2023-06-05T05:04:00;99616.91;;;12.11;62.66
66385;BME280;53426;55.872;37.462;2023-06-05T05:06:26;99606.03;;;12.04;62.76
66385;BME280;53426;55.872;37.462;2023-06-05T05:08:52;99617.63;;;12.13;63.24
66385;BME280;53426;55.872;37.462;2023-06-05T05:11:19;99600.59;;;12.25;62.56
66385;BME280;53426;55.872;37.462;2023-06-05T05:13:46;99605.66;;;12.57;62.11
66385;BME280;53426;55.872;37.462;2023-06-05T05:16:13;99615.97;;;12.98;60.47
66385;BME280;53426;55.872;37.462;2023-06-05T05:18:42;99603.97;;;13.51;59.74
66385;BME280;53426;55.872;37.462;2023-06-05T05:21:09;99602.09;;;14.15;58.70
66385;BME280;53426;55.872;37.462;2023-06-05T05:23:35;99584.69;;;14.21;57.00
66385;BME280;53426;55.872;37.462;2023-06-05T05:26:02;99619.19;;;14.40;57.66
66385;BME280;53426;55.872;37.462;2023-06-05T05:28:28;99610.03;;;14.25;57.85
66385;BME280;53426;55.872;37.462;2023-06-05T05:30:56;99587.69;;;13.91;58.67
66385;BME280;53426;55.872;37.462;2023-06-05T05:33:23;99603.25;;;14.31;58.37
66385;BME280;53426;55.872;37.462;2023-06-05T05:35:49;99613.59;;;14.43;58.72
66385;BME280;53426;55.872;37.462;2023-06-05T05:38:16;99599.06;;;14.10;58.54
66385;BME280;53426;55.872;37.462;2023-06-05T05:40:42;99625.81;;;13.81;59.75
66385;BME280;53426;55.872;37.462;2023-06-05T05:43:08;99623.56;;;13.87;60.99
66385;BME280;53426;55.872;37.462;2023-06-05T05:45:34;99625.81;;;13.81;60.12
66385;BME280;53426;55.872;37.462;2023-06-05T05:48:02;99626.25;;;13.50;60.95
66385;BME280;53426;55.872;37.462;2023-06-05T05:50:29;99621.63;;;13.42;60.81
66385;BME280;53426;55.872;37.462;2023-06-05T05:52:55;99623.78;;;13.29;62.07
66385;BME280;53426;55.872;37.462;2023-06-05T05:55:21;99619.03;;;13.23;62.86
66385;BME280;53426;55.872;37.462;2023-06-05T05:57:46;99627.16;;;13.58;61.89
66385;BME280;53426;55.872;37.462;2023-06-05T06:00:13;99622.28;;;14.18;60.19
66385;BME280;53426;55.872;37.462;2023-06-05T06:02:39;99631.25;;;14.44;59.44
66385;BME280;53426;55.872;37.462;2023-06-05T06:05:05;99611.63;;;14.45;58.50
66385;BME280;53426;55.872;37.462;2023-06-05T06:07:31;99608.41;;;14.59;59.05
66385;BME280;53426;55.872;37.462;2023-06-05T06:09:57;99620.28;;;14.83;57.86
66385;BME280;53426;55.872;37.462;2023-06-05T06:12:24;99617.63;;;14.83;57.98
66385;BME280;53426;55.872;37.462;2023-06-05T06:14:50;99617.28;;;15.29;57.02
66385;BME280;53426;55.872;37.462;2023-06-05T06:17:16;99584.41;;;15.88;56.12
66385;BME280;53426;55.872;37.462;2023-06-05T06:19:42;99621.00;;;16.46;53.50
66385;BME280;53426;55.872;37.462;2023-06-05T06:22:08;99622.09;;;16.27;53.42
66385;BME280;53426;55.872;37.462;2023-06-05T06:24:39;99610.16;;;16.64;53.12
66385;BME280;53426;55.872;37.462;2023-06-05T06:27:06;99608.41;;;17.68;50.41
66385;BME280;53426;55.872;37.462;2023-06-05T06:29:34;99611.56;;;19.33;47.52
66385;BME280;53426;55.872;37.462;2023-06-05T06:32:00;99581.97;;;19.85;45.73
66385;BME280;53426;55.872;37.462;2023-06-05T06:34:26;99605.47;;;19.97;43.75
66385;BME280;53426;55.872;37.462;2023-06-05T06:36:52;99584.75;;;19.62;44.33
66385;BME280;53426;55.872;37.462;2023-06-05T06:39:18;99601.81;;;19.69;43.65
66385;BME280;53426;55.872;37.462;2023-06-05T06:41:44;99599.72;;;20.94;42.25
66385;BME280;53426;55.872;37.462;2023-06-05T06:44:10;99602.81;;;22.08;40.29
66385;BME280;53426;55.872;37.462;2023-06-05T06:46:36;99602.81;;;23.35;38.17
66385;BME280;53426;55.872;37.462;2023-06-05T06:49:02;99584.59;;;24.01;35.92
66385;BME280;53426;55.872;37.462;2023-06-05T06:51:35;99589.56;;;24.17;35.58
66385;BME280;53426;55.872;37.462;2023-06-05T06:54:02;99599.97;;;25.39;33.67
66385;BME280;53426;55.872;37.462;2023-06-05T06:56:28;99595.09;;;25.73;33.13
66385;BME280;53426;55.872;37.462;2023-06-05T06:58:54;99582.97;;;26.42;32.54
66385;BME280;53426;55.872;37.462;2023-06-05T07:01:20;99588.81;;;26.57;32.21
66385;BME280;53426;55.872;37.462;2023-06-05T07:03:46;99595.69;;;26.11;31.54
66385;BME280;53426;55.872;37.462;2023-06-05T07:06:12;99580.69;;;26.69;29.78
66385;BME280;53426;55.872;37.462;2023-06-05T07:08:39;99584.34;;;26.62;31.09
66385;BME280;53426;55.872;37.462;2023-06-05T07:11:06;99575.97;;;26.94;29.69
66385;BME280;53426;55.872;37.462;2023-06-05T07:13:32;99567.81;;;27.05;29.17
66385;BME280;53426;55.872;37.462;2023-06-05T07:15:57;99575.28;;;26.80;29.48
66385;BME280;53426;55.872;37.462;2023-06-05T07:18:23;99561.94;;;27.43;28.82
66385;BME280;53426;55.872;37.462;2023-06-05T07:20:49;99587.81;;;27.46;29.00
66385;BME280;53426;55.872;37.462;2023-06-05T07:23:15;99593.50;;;27.56;28.50
66385;BME280;53426;55.872;37.462;2023-06-05T07:25:43;99569.88;;;28.20;27.76
66385;BME280;53426;55.872;37.462;2023-06-05T07:28:09;99590.66;;;28.54;27.13
66385;BME280;53426;55.872;37.462;2023-06-05T07:30:37;99581.53;;;27.11;28.78
66385;BME280;53426;55.872;37.462;2023-06-05T07:33:03;99582.25;;;26.76;29.26
66385;BME280;53426;55.872;37.462;2023-06-05T07:35:29;99586.47;;;26.60;29.44
66385;BME280;53426;55.872;37.462;2023-06-05T07:37:56;99591.22;;;27.30;28.98
66385;BME280;53426;55.872;37.462;2023-06-05T07:40:23;99590.09;;;28.24;27.90
66385;BME280;53426;55.872;37.462;2023-06-05T07:42:50;99582.78;;;28.13;28.28
66385;BME280;53426;55.872;37.462;2023-06-05T07:45:15;99584.94;;;27.06;28.65
66385;BME280;53426;55.872;37.462;2023-06-05T07:47:41;99575.88;;;25.56;30.41
66385;BME280;53426;55.872;37.462;2023-06-05T07:50:08;99583.44;;;25.23;30.40
66385;BME280;53426;55.872;37.462;2023-06-05T07:52:36;99573.38;;;25.91;29.88
66385;BME280;53426;55.872;37.462;2023-06-05T07:55:02;99567.59;;;27.19;27.93
66385;BME280;53426;55.872;37.462;2023-06-05T07:57:29;99576.22;;;27.04;27.44
66385;BME280;53426;55.872;37.462;2023-06-05T07:59:55;99571.97;;;28.29;26.43
66385;BME280;53426;55.872;37.462;2023-06-05T08:02:22;99571.66;;;28.14;26.23
66385;BME280;53426;55.872;37.462;2023-06-05T08:04:49;99564.75;;;28.12;26.01
66385;BME280;53426;55.872;37.462;2023-06-05T08:07:15;99549.44;;;27.94;26.20
66385;BME280;53426;55.872;37.462;2023-06-05T08:09:41;99567.81;;;27.75;26.86
66385;BME280;53426;55.872;37.462;2023-06-05T08:12:07;99567.00;;;27.75;27.38
66385;BME280;53426;55.872;37.462;2023-06-05T08:14:34;99563.06;;;28.34;25.82
66385;BME280;53426;55.872;37.462;2023-06-05T08:17:00;99561.78;;;27.73;27.20
66385;BME280;53426;55.872;37.462;2023-06-05T08:19:26;99555.06;;;26.94;27.53
66385;BME280;53426;55.872;37.462;2023-06-05T08:21:53;99564.19;;;25.56;29.46
66385;BME280;53426;55.872;37.462;2023-06-05T08:24:25;99563.13;;;24.20;31.04
66385;BME280;53426;55.872;37.462;2023-06-05T08:26:52;99532.81;;;23.14;33.03
66385;BME280;53426;55.872;37.462;2023-06-05T08:29:18;99563.13;;;22.63;34.16
66385;BME280;53426;55.872;37.462;2023-06-05T08:31:44;99550.00;;;22.53;34.38
66385;BME280;53426;55.872;37.462;2023-06-05T08:34:11;99541.91;;;22.53;34.45
66385;BME280;53426;55.872;37.462;2023-06-05T08:36:37;99544.44;;;22.62;34.67
66385;BME280;53426;55.872;37.462;2023-06-05T08:39:03;99553.22;;;22.09;35.56
66385;BME280;53426;55.872;37.462;2023-06-05T08:41:30;99516.13;;;21.64;35.77
66385;BME280;53426;55.872;37.462;2023-06-05T08:43:57;99545.22;;;21.41;36.15
66385;BME280;53426;55.872;37.462;2023-06-05T08:46:27;99545.47;;;21.93;36.17
66385;BME280;53426;55.872;37.462;2023-06-05T08:48:53;99533.25;;;23.11;33.57
66385;BME280;53426;55.872;37.462;2023-06-05T08:51:21;99547.53;;;25.27;30.72
66385;BME280;53426;55.872;37.462;2023-06-05T08:53:51;99545.13;;;25.62;30.15
66385;BME280;53426;55.872;37.462;2023-06-05T08:56:20;99551.16;;;27.14;27.85
66385;BME280;53426;55.872;37.462;2023-06-05T08:58:46;99536.31;;;26.33;28.76
66385;BME280;53426;55.872;37.462;2023-06-05T09:01:15;99525.28;;;25.25;29.78
66385;BME280;53426;55.872;37.462;2023-06-05T09:03:42;99549.16;;;23.71;33.20
66385;BME280;53426;55.872;37.462;2023-06-05T09:06:10;99548.50;;;21.77;36.14
66385;BME280;53426;55.872;37.462;2023-06-05T09:08:36;99545.34;;;20.20;40.39
66385;BME280;53426;55.872;37.462;2023-06-05T09:11:41;99538.25;;;20.12;40.62
66385;BME280;53426;55.872;37.462;2023-06-05T09:14:06;99533.53;;;22.09;39.24
66385;BME280;53426;55.872;37.462;2023-06-05T09:16:33;99533.91;;;24.28;35.71
66385;BME280;53426;55.872;37.462;2023-06-05T09:18:59;99506.25;;;26.16;31.91
66385;BME280;53426;55.872;37.462;2023-06-05T09:21:26;99532.56;;;27.80;29.61
66385;BME280;53426;55.872;37.462;2023-06-05T09:29:25;99519.00;;;26.46;30.66
66385;BME280;53426;55.872;37.462;2023-06-05T09:31:54;99533.41;;;24.76;32.80
66385;BME280;53426;55.872;37.462;2023-06-05T09:34:30;99544.00;;;23.30;34.92
66385;BME280;53426;55.872;37.462;2023-06-05T09:36:58;99543.25;;;21.62;41.34
66385;BME280;53426;55.872;37.462;2023-06-05T09:39:26;99526.22;;;19.57;42.86
66385;BME280;53426;55.872;37.462;2023-06-05T09:41:54;99543.47;;;18.96;43.67
66385;BME280;53426;55.872;37.462;2023-06-05T09:44:20;99551.72;;;18.72;44.22
66385;BME280;53426;55.872;37.462;2023-06-05T09:49:26;99528.94;;;18.22;45.53
66385;BME280;53426;55.872;37.462;2023-06-05T09:51:54;99547.91;;;18.66;45.92
66385;BME280;53426;55.872;37.462;2023-06-05T09:54:21;99559.03;;;19.01;45.02
66385;BME280;53426;55.872;37.462;2023-06-05T09:56:49;99550.81;;;19.32;43.56
66385;BME280;53426;55.872;37.462;2023-06-05T09:59:22;99560.91;;;20.39;42.58
66385;BME280;53426;55.872;37.462;2023-06-05T10:01:51;99551.69;;;21.94;39.17
66385;BME280;53426;55.872;37.462;2023-06-05T10:04:21;99546.50;;;23.39;35.80
66385;BME280;53426;55.872;37.462;2023-06-05T10:06:50;99535.63;;;23.78;33.32
66385;BME280;53426;55.872;37.462;2023-06-05T10:09:17;99542.28;;;23.69;33.67
66385;BME280;53426;55.872;37.462;2023-06-05T10:11:43;99545.03;;;24.07;34.34
66385;BME280;53426;55.872;37.462;2023-06-05T10:14:13;99540.69;;;24.44;33.81
66385;BME280;53426;55.872;37.462;2023-06-05T10:16:40;99532.47;;;24.88;32.98
66385;BME280;53426;55.872;37.462;2023-06-05T10:19:07;99540.66;;;25.50;32.45
66385;BME280;53426;55.872;37.462;2023-06-05T10:21:33;99539.03;;;25.85;31.37
66385;BME280;53426;55.872;37.462;2023-06-05T10:24:09;99544.63;;;26.91;30.30
66385;BME280;53426;55.872;37.462;2023-06-05T10:38:07;99532.63;;;24.69;33.50
66385;BME280;53426;55.872;37.462;2023-06-05T10:40:39;99533.63;;;22.62;35.35
66385;BME280;53426;55.872;37.462;2023-06-05T10:43:25;99537.63;;;21.57;37.55
66385;BME280;53426;55.872;37.462;2023-06-05T10:45:51;99532.78;;;21.40;38.04
66385;BME280;53426;55.872;37.462;2023-06-05T10:48:17;99524.41;;;22.10;36.63
66385;BME280;53426;55.872;37.462;2023-06-05T10:50:43;99515.06;;;22.06;36.92
66385;BME280;53426;55.872;37.462;2023-06-05T10:57:03;99531.16;;;20.62;39.11
66385;BME280;53426;55.872;37.462;2023-06-05T11:07:21;99532.84;;;19.17;40.57
66385;BME280;53426;55.872;37.462;2023-06-05T11:15:12;99525.34;;;19.42;39.17
66385;BME280;53426;55.872;37.462;2023-06-05T11:17:44;99531.13;;;19.69;39.51
66385;BME280;53426;55.872;37.462;2023-06-05T11:25:25;99492.50;;;20.05;38.01
66385;BME280;53426;55.872;37.462;2023-06-05T11:28:00;99490.41;;;20.08;38.56
66385;BME280;53426;55.872;37.462;2023-06-05T11:30:44;99503.25;;;20.05;38.94
66385;BME280;53426;55.872;37.462;2023-06-05T11:33:12;99511.78;;;19.94;38.76
66385;BME280;53426;55.872;37.462;2023-06-05T11:35:39;99502.38;;;19.84;38.31
66385;BME280;53426;55.872;37.462;2023-06-05T11:40:35;99509.91;;;19.30;40.13
66385;BME280;53426;55.872;37.462;2023-06-05T11:43:06;99537.94;;;18.98;40.87
66385;BME280;53426;55.872;37.462;2023-06-05T11:45:33;99541.84;;;18.27;42.00
66385;BME280;53426;55.872;37.462;2023-06-05T11:48:10;99553.19;;;17.59;44.34
66385;BME280;53426;55.872;37.462;2023-06-05T11:50:58;99548.00;;;16.86;47.01
66385;BME280;53426;55.872;37.462;2023-06-05T11:53:25;99571.16;;;16.13;51.08
66385;BME280;53426;55.872;37.462;2023-06-05T11:55:52;99569.81;;;15.59;54.96
66385;BME280;53426;55.872;37.462;2023-06-05T11:58:25;99568.44;;;15.29;57.06
66385;BME280;53426;55.872;37.462;2023-06-05T12:00:52;99568.47;;;15.11;57.26
66385;BME280;53426;55.872;37.462;2023-06-05T12:03:29;99566.50;;;15.13;58.26
66385;BME280;53426;55.872;37.462;2023-06-05T12:05:54;99545.16;;;15.13;58.34
66385;BME280;53426;55.872;37.462;2023-06-05T12:08:28;99536.91;;;15.24;57.96
66385;BME280;53426;55.872;37.462;2023-06-05T12:10:55;99533.31;;;15.41;56.83
66385;BME280;53426;55.872;37.462;2023-06-05T12:13:54;99543.47;;;15.72;55.08
66385;BME280;53426;55.872;37.462;2023-06-05T12:16:50;99552.13;;;15.66;54.08
66385;BME280;53426;55.872;37.462;2023-06-05T12:19:18;99541.38;;;15.92;54.39
66385;BME280;53426;55.872;37.462;2023-06-05T12:21:45;99538.28;;;16.28;53.91
66385;BME280;53426;55.872;37.462;2023-06-05T12:24:12;99507.91;;;16.46;53.59
66385;BME280;53426;55.872;37.462;2023-06-05T12:26:54;99531.63;;;16.89;52.24
66385;BME280;53426;55.872;37.462;2023-06-05T12:29:28;99528.22;;;17.20;51.73
66385;BME280;53426;55.872;37.462;2023-06-05T12:31:59;99537.94;;;17.21;51.58
66385;BME280;53426;55.872;37.462;2023-06-05T12:34:39;99524.53;;;17.29;51.70
66385;BME280;53426;55.872;37.462;2023-06-05T12:37:11;99534.03;;;17.31;50.81
66385;BME280;53426;55.872;37.462;2023-06-05T12:39:38;99525.69;;;17.34;49.96
66385;BME280;53426;55.872;37.462;2023-06-05T12:42:04;99530.47;;;17.47;50.50
66385;BME280;53426;55.872;37.462;2023-06-05T12:44:31;99490.94;;;17.57;49.44
66385;BME280;53426;55.872;37.462;2023-06-05T12:46:57;99525.84;;;17.80;49.36
66385;BME280;53426;55.872;37.462;2023-06-05T12:49:22;99524.38;;;17.77;49.20
66385;BME280;53426;55.872;37.462;2023-06-05T12:51:48;99518.72;;;17.64;49.76
66385;BME280;53426;55.872;37.462;2023-06-05T12:54:15;99522.13;;;17.50;49.88
66385;BME280;53426;55.872;37.462;2023-06-05T12:56:44;99516.16;;;17.32;50.10
66385;BME280;53426;55.872;37.462;2023-06-05T12:59:15;99496.47;;;17.08;50.73
66385;BME280;53426;55.872;37.462;2023-06-05T13:01:48;99532.03;;;17.33;49.72
66385;BME280;53426;55.872;37.462;2023-06-05T13:04:14;99523.88;;;17.19;50.87
66385;BME280;53426;55.872;37.462;2023-06-05T13:06:40;99520.56;;;17.17;51.55
66385;BME280;53426;55.872;37.462;2023-06-05T13:09:06;99496.44;;;17.25;51.19
66385;BME280;53426;55.872;37.462;2023-06-05T13:11:32;99513.16;;;17.27;50.88
66385;BME280;53426;55.872;37.462;2023-06-05T13:13:58;99487.81;;;16.98;50.82
66385;BME280;53426;55.872;37.462;2023-06-05T13:16:24;99516.69;;;17.27;50.93
66385;BME280;53426;55.872;37.462;2023-06-05T13:18:50;99511.28;;;17.35;49.45
66385;BME280;53426;55.872;37.462;2023-06-05T13:21:16;99507.75;;;17.43;48.10
66385;BME280;53426;55.872;37.462;2023-06-05T13:23:42;99477.84;;;17.31;47.96
66385;BME280;53426;55.872;37.462;2023-06-05T13:26:08;99502.50;;;17.57;47.91
66385;BME280;53426;55.872;37.462;2023-06-05T13:28:33;99491.97;;;17.56;46.88
66385;BME280;53426;55.872;37.462;2023-06-05T13:31:00;99464.16;;;17.57;47.73
66385;BME280;53426;55.872;37.462;2023-06-05T13:33:29;99490.50;;;17.84;45.77
66385;BME280;53426;55.872;37.462;2023-06-05T13:35:55;99464.84;;;17.67;44.75
66385;BME280;53426;55.872;37.462;2023-06-05T13:38:21;99487.97;;;17.60;45.88
66385;BME280;53426;55.872;37.462;2023-06-05T13:40:49;99489.38;;;17.32;47.35
66385;BME280;53426;55.872;37.462;2023-06-05T13:43:16;99485.25;;;17.21;47.07
66385;BME280;53426;55.872;37.462;2023-06-05T13:45:44;99487.91;;;17.21;46.31